createdAt,value
2023-01-17T00:00:08.996Z,4.70
2023-01-17T00:02:39.360Z,4.70
2023-01-17T00:05:25.572Z,4.60
2023-01-17T00:08:08.200Z,4.70
2023-01-17T00:10:43.531Z,4.60
2023-01-17T00:13:13.890Z,4.70
2023-01-17T00:15:47.087Z,4.60
2023-01-17T00:18:17.800Z,4.60
2023-01-17T00:21:00.882Z,4.60
2023-01-17T00:23:43.576Z,4.60
2023-01-17T00:26:16.988Z,4.50
2023-01-17T00:28:44.741Z,4.50
2023-01-17T00:31:16.670Z,4.50
2023-01-17T00:33:44.132Z,4.60
2023-01-17T00:36:12.073Z,4.50
2023-01-17T00:38:40.521Z,4.50
2023-01-17T00:41:09.416Z,4.50
2023-01-17T00:43:52.600Z,4.50
2023-01-17T00:46:38.202Z,4.60
2023-01-17T00:49:21.315Z,4.50
2023-01-17T00:52:04.003Z,4.50
2023-01-17T00:54:46.691Z,4.40
2023-01-17T00:57:29.461Z,4.60
2023-01-17T01:00:12.186Z,4.40
2023-01-17T01:02:57.450Z,4.40
2023-01-17T01:05:40.522Z,4.40
2023-01-17T01:08:32.953Z,4.30
2023-01-17T01:11:15.934Z,4.30
2023-01-17T01:13:58.627Z,4.30
2023-01-17T01:16:41.374Z,4.30
2023-01-17T01:19:26.559Z,4.30
2023-01-17T01:22:09.170Z,4.30
2023-01-17T01:24:51.872Z,4.30
2023-01-17T01:27:34.672Z,4.30
2023-01-17T01:30:17.404Z,4.30
2023-01-17T01:33:00.349Z,4.30
2023-01-17T01:35:33.356Z,4.20
2023-01-17T01:38:05.563Z,4.20
2023-01-17T01:40:35.887Z,4.10
2023-01-17T01:43:06.220Z,4.10
2023-01-17T01:45:36.605Z,4.20
2023-01-17T01:48:12.451Z,4.10
2023-01-17T01:50:45.464Z,4.10
2023-01-17T01:53:16.048Z,4.10
2023-01-17T01:55:49.830Z,4.10
2023-01-17T01:58:25.178Z,4.20
2023-01-17T02:00:55.625Z,4.10
2023-01-17T02:03:41.791Z,4.00
2023-01-17T02:06:28.570Z,4.00
2023-01-17T02:09:01.813Z,4.00
2023-01-17T02:11:34.687Z,4.10
2023-01-17T02:14:05.172Z,3.90
2023-01-17T02:16:50.466Z,4.00
2023-01-17T02:19:52.567Z,3.90
2023-01-17T02:22:52.784Z,4.00
2023-01-17T02:26:00.659Z,3.80
2023-01-17T02:28:46.440Z,3.90
2023-01-17T02:31:29.475Z,3.90
2023-01-17T02:34:06.328Z,3.90
2023-01-17T02:36:40.240Z,3.90
2023-01-17T02:39:16.292Z,3.80
2023-01-17T02:41:48.989Z,3.90
2023-01-17T02:44:22.189Z,3.90
2023-01-17T02:46:57.338Z,3.80
2023-01-17T02:49:30.378Z,3.80
2023-01-17T02:52:15.479Z,3.90
2023-01-17T02:55:02.777Z,3.80
2023-01-17T02:57:45.715Z,3.80
2023-01-17T03:00:24.896Z,3.70
2023-01-17T03:03:03.871Z,3.70
2023-01-17T03:05:41.695Z,3.70
2023-01-17T03:08:13.036Z,3.70
2023-01-17T03:10:46.001Z,3.80
2023-01-17T03:13:16.641Z,3.80
2023-01-17T03:15:47.168Z,3.70
2023-01-17T03:18:20.114Z,3.70
2023-01-17T03:20:50.455Z,3.70
2023-01-17T03:23:20.703Z,3.70
2023-01-17T03:25:51.039Z,3.80
2023-01-17T03:28:21.350Z,3.70
2023-01-17T03:30:54.706Z,3.70
2023-01-17T03:33:31.629Z,3.70
2023-01-17T03:36:02.317Z,3.60
2023-01-17T03:38:33.314Z,3.60
2023-01-17T03:41:03.645Z,3.60
2023-01-17T03:43:34.000Z,3.70
2023-01-17T03:46:08.713Z,3.60
2023-01-17T03:48:44.595Z,3.60
2023-01-17T03:51:15.011Z,3.60
2023-01-17T03:53:47.102Z,3.70
2023-01-17T03:56:17.951Z,3.50
2023-01-17T03:58:48.632Z,3.60
2023-01-17T04:01:19.390Z,3.50
2023-01-17T04:03:52.357Z,3.50
2023-01-17T04:06:22.701Z,3.50
2023-01-17T04:08:53.282Z,3.50
2023-01-17T04:11:23.991Z,3.50
2023-01-17T04:13:55.390Z,3.50
2023-01-17T04:16:32.441Z,3.60
2023-01-17T04:19:05.378Z,3.50
2023-01-17T04:21:35.680Z,3.50
2023-01-17T04:24:05.954Z,3.50
2023-01-17T04:26:36.315Z,3.60
2023-01-17T04:29:06.694Z,3.40
2023-01-17T04:31:37.017Z,3.40
2023-01-17T04:34:10.025Z,3.40
2023-01-17T04:36:40.372Z,3.50
2023-01-17T04:39:11.016Z,3.50
2023-01-17T04:41:41.311Z,3.50
2023-01-17T04:44:11.620Z,3.50
2023-01-17T04:46:41.954Z,3.40
2023-01-17T04:49:14.868Z,3.50
2023-01-17T04:51:45.169Z,3.40
2023-01-17T04:54:15.536Z,3.40
2023-01-17T04:56:45.852Z,3.40
2023-01-17T04:59:16.328Z,3.50
2023-01-17T05:01:46.662Z,3.40
2023-01-17T05:04:19.811Z,3.40
2023-01-17T05:06:53.184Z,3.30
2023-01-17T05:09:23.541Z,3.40
2023-01-17T05:11:55.807Z,3.40
2023-01-17T05:14:27.196Z,3.50
2023-01-17T05:16:57.873Z,3.50
2023-01-17T05:19:30.804Z,3.40
2023-01-17T05:22:04.215Z,3.40
2023-01-17T05:24:34.859Z,3.40
2023-01-17T05:27:05.450Z,3.40
2023-01-17T05:29:35.786Z,3.40
2023-01-17T05:32:06.475Z,3.40
2023-01-17T05:34:39.448Z,3.40
2023-01-17T05:37:09.800Z,3.40
2023-01-17T05:39:40.141Z,3.40
2023-01-17T05:42:10.495Z,3.50
2023-01-17T05:44:40.839Z,3.40
2023-01-17T05:47:11.163Z,3.40
2023-01-17T05:49:45.945Z,3.40
2023-01-17T05:52:16.334Z,3.40
2023-01-17T05:54:47.662Z,3.40
2023-01-17T05:57:18.011Z,3.40
2023-01-17T05:59:49.526Z,3.40
2023-01-17T06:02:19.924Z,3.40
2023-01-17T06:04:53.029Z,3.60
2023-01-17T06:07:23.492Z,3.40
2023-01-17T06:09:53.829Z,3.40
2023-01-17T06:12:24.201Z,3.40
2023-01-17T06:14:54.606Z,3.40
2023-01-17T06:17:25.065Z,3.40
2023-01-17T06:19:58.019Z,3.30
2023-01-17T06:22:28.438Z,3.40
2023-01-17T06:24:59.066Z,3.40
2023-01-17T06:27:29.515Z,3.40
2023-01-17T06:29:59.903Z,3.40
2023-01-17T06:32:30.273Z,3.40
2023-01-17T06:35:03.262Z,3.30
2023-01-17T06:37:33.685Z,3.30
2023-01-17T06:40:04.089Z,3.30
2023-01-17T06:42:34.673Z,3.30
2023-01-17T06:45:05.019Z,3.30
2023-01-17T06:47:35.381Z,3.40
2023-01-17T06:50:09.944Z,3.30
2023-01-17T06:52:40.344Z,3.30
2023-01-17T06:55:12.351Z,3.30
2023-01-17T06:57:42.838Z,3.30
2023-01-17T07:00:17.600Z,3.30
2023-01-17T07:02:49.363Z,3.30
2023-01-17T07:05:22.791Z,3.30
2023-01-17T07:07:53.757Z,3.30
2023-01-17T07:10:24.514Z,3.30
2023-01-17T07:12:54.816Z,3.30
2023-01-17T07:15:25.088Z,3.20
2023-01-17T07:17:55.418Z,3.20
2023-01-17T07:20:28.517Z,3.30
2023-01-17T07:22:58.918Z,3.30
2023-01-17T07:25:29.690Z,3.20
2023-01-17T07:28:00.414Z,3.30
2023-01-17T07:30:30.865Z,3.30
2023-01-17T07:33:01.581Z,3.20
2023-01-17T07:35:34.470Z,3.20
2023-01-17T07:38:05.900Z,3.30
2023-01-17T07:40:41.773Z,3.20
2023-01-17T07:43:16.789Z,3.20
2023-01-17T07:45:49.717Z,3.20
2023-01-17T07:48:20.728Z,3.20
2023-01-17T07:50:58.042Z,3.20
2023-01-17T07:53:29.504Z,3.20
2023-01-17T07:56:03.701Z,3.10
2023-01-17T07:58:34.237Z,3.30
2023-01-17T08:01:05.992Z,3.10
2023-01-17T08:03:40.093Z,3.10
2023-01-17T08:06:22.505Z,3.10
2023-01-17T08:08:55.209Z,3.10
2023-01-17T08:11:25.633Z,3.10
2023-01-17T08:13:59.467Z,3.10
2023-01-17T08:16:30.977Z,3.10
2023-01-17T08:19:01.316Z,3.10
2023-01-17T08:21:34.300Z,3.20
2023-01-17T08:24:04.651Z,3.10
2023-01-17T08:26:34.973Z,3.00
2023-01-17T08:29:05.344Z,3.00
2023-01-17T08:31:38.076Z,3.10
2023-01-17T08:34:08.494Z,3.00
2023-01-17T08:36:43.011Z,3.00
2023-01-17T08:39:13.569Z,3.10
2023-01-17T08:41:44.391Z,3.10
2023-01-17T08:44:15.981Z,3.10
2023-01-17T08:46:46.924Z,3.00
2023-01-17T08:49:17.381Z,3.10
2023-01-17T08:51:51.975Z,3.00
2023-01-17T08:54:23.221Z,3.10
2023-01-17T08:56:55.022Z,3.00
2023-01-17T08:59:25.364Z,3.00
2023-01-17T09:01:58.549Z,3.10
2023-01-17T09:04:29.175Z,3.20
2023-01-17T09:07:03.280Z,3.10
2023-01-17T09:09:33.808Z,3.10
2023-01-17T09:12:04.248Z,3.10
2023-01-17T09:14:34.603Z,3.20
2023-01-17T09:17:05.907Z,3.20
2023-01-17T09:19:38.992Z,3.10
2023-01-17T09:22:12.017Z,3.10
2023-01-17T09:24:42.419Z,3.30
2023-01-17T09:27:12.848Z,3.20
2023-01-17T09:29:43.264Z,3.30
2023-01-17T09:32:13.660Z,3.30
2023-01-17T09:34:43.961Z,3.20
2023-01-17T09:37:17.084Z,3.20
2023-01-17T09:39:47.568Z,3.20
2023-01-17T09:42:26.074Z,3.20
2023-01-17T09:44:57.661Z,3.30
2023-01-17T09:47:37.524Z,3.20
2023-01-17T09:50:24.154Z,3.40
2023-01-17T09:53:01.451Z,3.40
2023-01-17T09:55:36.872Z,3.30
2023-01-17T09:58:12.579Z,3.50
2023-01-17T10:00:54.205Z,3.40
2023-01-17T10:03:42.848Z,3.40
2023-01-17T10:06:29.656Z,3.50
2023-01-17T10:09:24.167Z,3.50
2023-01-17T10:12:09.783Z,3.60
2023-01-17T10:14:54.630Z,3.50
2023-01-17T10:17:36.621Z,3.60
2023-01-17T10:20:25.923Z,3.60
2023-01-17T10:23:12.758Z,3.60
2023-01-17T10:25:50.669Z,3.70
2023-01-17T10:28:27.145Z,3.70
2023-01-17T10:31:03.878Z,3.70
2023-01-17T10:33:41.635Z,3.70
2023-01-17T10:36:18.224Z,3.70
2023-01-17T10:38:51.073Z,3.70
2023-01-17T10:41:29.174Z,3.70
2023-01-17T10:44:10.333Z,3.80
2023-01-17T10:46:46.002Z,3.80
2023-01-17T10:49:20.772Z,4.00
2023-01-17T10:52:11.453Z,3.90
2023-01-17T10:54:59.158Z,4.00
2023-01-17T10:57:32.545Z,4.00
2023-01-17T11:00:23.259Z,4.20
2023-01-17T11:02:54.849Z,4.10
2023-01-17T11:05:28.916Z,4.20
2023-01-17T11:08:04.216Z,4.10
2023-01-17T11:10:41.162Z,4.20
2023-01-17T11:13:28.867Z,4.20
2023-01-17T11:16:02.542Z,4.30
2023-01-17T11:18:35.623Z,4.30
2023-01-17T11:21:12.321Z,4.30
2023-01-17T11:23:45.510Z,4.30
2023-01-17T11:26:26.501Z,4.40
2023-01-17T11:29:18.190Z,4.50
2023-01-17T11:31:48.549Z,4.50
2023-01-17T11:34:21.026Z,4.50
2023-01-17T11:36:52.043Z,4.70
2023-01-17T11:39:28.937Z,4.60
2023-01-17T11:41:59.739Z,4.60
2023-01-17T11:44:35.150Z,4.70
2023-01-17T11:47:20.182Z,4.80
2023-01-17T11:49:52.029Z,4.80
2023-01-17T11:52:27.429Z,4.90
2023-01-17T11:54:58.897Z,4.90
2023-01-17T11:57:31.818Z,4.80
2023-01-17T12:00:19.582Z,4.80
2023-01-17T12:03:10.645Z,4.90
2023-01-17T12:05:53.819Z,4.90
2023-01-17T12:08:41.717Z,4.90
2023-01-17T12:11:17.447Z,4.90
2023-01-17T12:14:01.982Z,5.00
2023-01-17T12:16:47.809Z,5.10
2023-01-17T12:19:38.204Z,5.10
2023-01-17T12:22:33.935Z,5.20
2023-01-17T12:25:27.433Z,5.20
2023-01-17T12:28:11.716Z,5.20
2023-01-17T12:30:54.235Z,5.20
2023-01-17T12:33:37.475Z,5.20
2023-01-17T12:36:17.800Z,5.10
2023-01-17T12:38:50.878Z,5.10
2023-01-17T12:41:26.841Z,5.10
2023-01-17T12:44:01.917Z,5.20
2023-01-17T12:46:39.276Z,5.30
2023-01-17T12:49:26.468Z,5.30
2023-01-17T12:52:03.456Z,5.30
2023-01-17T12:54:39.855Z,5.20
2023-01-17T12:57:18.674Z,5.20
2023-01-17T12:59:54.141Z,5.20
2023-01-17T13:02:34.212Z,5.30
2023-01-17T13:05:15.422Z,5.40
2023-01-17T13:07:52.290Z,5.50
2023-01-17T13:10:32.099Z,5.50
2023-01-17T13:13:13.152Z,5.60
2023-01-17T13:15:44.706Z,5.70
2023-01-17T13:18:22.899Z,5.70
2023-01-17T13:21:08.023Z,5.60
2023-01-17T13:23:50.752Z,5.70
2023-01-17T13:26:32.239Z,5.70
2023-01-17T13:29:14.335Z,5.70
2023-01-17T13:32:00.502Z,5.70
2023-01-17T13:34:52.978Z,5.60
2023-01-17T13:38:02.879Z,5.70
2023-01-17T13:40:38.633Z,5.70
2023-01-17T13:43:15.650Z,5.80
2023-01-17T13:45:55.186Z,5.80
2023-01-17T13:48:31.706Z,5.80
2023-01-17T13:51:03.837Z,5.80
2023-01-17T13:54:00.788Z,5.80
2023-01-17T13:56:40.307Z,5.80
2023-01-17T13:59:32.226Z,5.80
2023-01-17T14:02:02.654Z,5.80
2023-01-17T14:05:05.949Z,5.70
2023-01-17T14:07:38.068Z,5.70
2023-01-17T14:10:33.584Z,5.70
2023-01-17T14:13:04.821Z,5.80
2023-01-17T14:15:37.728Z,5.80
2023-01-17T14:18:08.449Z,5.80
2023-01-17T14:21:10.048Z,5.80
2023-01-17T14:24:04.059Z,5.80
2023-01-17T14:26:50.173Z,5.80
2023-01-17T14:29:49.568Z,5.80
2023-01-17T14:32:23.050Z,5.80
2023-01-17T14:34:54.827Z,5.80
2023-01-17T14:37:36.650Z,5.70
2023-01-17T14:40:20.228Z,5.70
2023-01-17T14:43:02.387Z,5.70
2023-01-17T14:45:35.053Z,5.70
2023-01-17T14:48:08.130Z,5.60
2023-01-17T14:50:42.863Z,5.60
2023-01-17T14:53:28.412Z,5.60
2023-01-17T14:56:02.119Z,5.60
2023-01-17T14:58:37.716Z,5.60
2023-01-17T15:01:13.837Z,5.60
2023-01-17T15:03:50.054Z,5.70
2023-01-17T15:06:22.905Z,5.60
2023-01-17T15:08:54.838Z,5.50
2023-01-17T15:11:29.884Z,5.60
2023-01-17T15:14:06.015Z,5.50
2023-01-17T15:16:38.634Z,5.50
2023-01-17T15:19:14.569Z,5.50
2023-01-17T15:21:46.867Z,5.50
2023-01-17T15:24:22.607Z,5.50
2023-01-17T15:26:53.431Z,5.50
2023-01-17T15:29:28.372Z,5.50
2023-01-17T15:32:00.686Z,5.40
2023-01-17T15:34:33.838Z,5.30
2023-01-17T15:37:08.089Z,5.30
2023-01-17T15:39:41.745Z,5.30
2023-01-17T15:42:24.667Z,5.30
2023-01-17T15:45:01.021Z,5.20
2023-01-17T15:47:34.419Z,5.10
2023-01-17T15:50:26.841Z,5.10
2023-01-17T15:52:59.015Z,5.00
2023-01-17T15:55:34.182Z,5.00
2023-01-17T15:58:05.833Z,4.90
2023-01-17T16:00:45.307Z,5.00
2023-01-17T16:03:26.539Z,4.90
2023-01-17T16:05:57.997Z,4.80
2023-01-17T16:08:40.177Z,4.80
2023-01-17T16:11:15.975Z,4.80
2023-01-17T16:13:47.569Z,4.80
2023-01-17T16:16:24.028Z,4.70
2023-01-17T16:19:02.790Z,4.70
2023-01-17T16:21:34.329Z,4.60
2023-01-17T16:24:05.834Z,4.60
2023-01-17T16:26:36.241Z,4.60
2023-01-17T16:29:07.733Z,4.60
2023-01-17T16:31:40.804Z,4.50
2023-01-17T16:34:14.730Z,4.40
2023-01-17T16:36:45.443Z,4.50
2023-01-17T16:39:17.601Z,4.40
2023-01-17T16:41:48.033Z,4.40
2023-01-17T16:44:18.563Z,4.40
2023-01-17T16:46:51.583Z,4.40
2023-01-17T16:49:21.883Z,4.30
2023-01-17T16:51:52.211Z,4.40
2023-01-17T16:54:22.634Z,4.40
2023-01-17T16:56:52.970Z,4.30
2023-01-17T16:59:23.476Z,4.30
2023-01-17T17:01:56.493Z,4.20
2023-01-17T17:04:27.183Z,4.20
2023-01-17T17:06:58.098Z,4.30
2023-01-17T17:09:28.544Z,4.20
2023-01-17T17:11:59.535Z,4.20
2023-01-17T17:14:31.240Z,4.20
2023-01-17T17:17:05.039Z,4.10
2023-01-17T17:19:37.701Z,4.10
2023-01-17T17:22:09.044Z,4.10
2023-01-17T17:24:39.655Z,4.10
2023-01-17T17:27:10.067Z,4.10
2023-01-17T17:29:41.367Z,4.10
2023-01-17T17:32:14.557Z,4.10
2023-01-17T17:34:45.507Z,4.10
2023-01-17T17:37:16.441Z,4.00
2023-01-17T17:39:47.114Z,4.00
2023-01-17T17:42:19.867Z,4.00
2023-01-17T17:44:50.239Z,4.00
2023-01-17T17:47:24.128Z,4.10
2023-01-17T17:49:54.469Z,4.30
2023-01-17T17:52:25.145Z,4.00
2023-01-17T17:54:55.476Z,4.00
2023-01-17T17:57:25.821Z,3.90
2023-01-17T17:59:56.943Z,3.80
2023-01-17T18:02:30.148Z,3.90
2023-01-17T18:05:00.567Z,3.90
2023-01-17T18:07:33.254Z,3.90
2023-01-17T18:10:03.919Z,3.80
2023-01-17T18:12:34.347Z,3.90
2023-01-17T18:15:07.134Z,3.80
2023-01-17T18:17:40.116Z,3.90
2023-01-17T18:20:11.533Z,3.80
2023-01-17T18:22:43.661Z,3.70
2023-01-17T18:25:14.409Z,3.70
2023-01-17T18:27:46.382Z,3.70
2023-01-17T18:30:17.224Z,3.80
2023-01-17T18:32:52.416Z,3.70
2023-01-17T18:35:22.852Z,3.70
2023-01-17T18:37:53.444Z,3.70
2023-01-17T18:40:24.186Z,3.70
2023-01-17T18:42:54.835Z,3.70
2023-01-17T18:45:25.369Z,3.70
2023-01-17T18:47:58.328Z,3.60
2023-01-17T18:50:28.690Z,3.60
2023-01-17T18:52:59.045Z,3.60
2023-01-17T18:55:29.447Z,3.60
2023-01-17T18:57:59.849Z,3.60
2023-01-17T19:00:30.314Z,3.70
2023-01-17T19:03:03.456Z,3.60
2023-01-17T19:05:33.845Z,3.60
2023-01-17T19:08:04.200Z,3.50
2023-01-17T19:10:34.596Z,3.50
2023-01-17T19:13:05.586Z,3.50
2023-01-17T19:15:36.412Z,3.50
2023-01-17T19:18:09.498Z,3.70
2023-01-17T19:20:39.863Z,3.50
2023-01-17T19:23:10.200Z,3.60
2023-01-17T19:25:40.659Z,3.50
2023-01-17T19:28:11.810Z,3.60
2023-01-17T19:30:42.260Z,3.60
2023-01-17T19:33:15.383Z,3.50
2023-01-17T19:35:45.781Z,3.50
2023-01-17T19:38:16.313Z,3.60
2023-01-17T19:40:46.724Z,3.50
2023-01-17T19:43:17.092Z,3.50
2023-01-17T19:45:48.998Z,3.40
2023-01-17T19:48:22.688Z,3.30
2023-01-17T19:50:54.762Z,3.30
2023-01-17T19:53:25.210Z,3.40
2023-01-17T19:55:55.571Z,3.40
2023-01-17T19:58:26.212Z,3.40
2023-01-17T20:00:56.685Z,3.40
2023-01-17T20:03:29.848Z,3.30
2023-01-17T20:06:00.514Z,3.30
2023-01-17T20:08:30.925Z,3.30
2023-01-17T20:11:04.916Z,3.30
2023-01-17T20:13:35.822Z,3.20
2023-01-17T20:16:07.099Z,3.30
2023-01-17T20:18:41.609Z,3.40
2023-01-17T20:21:13.612Z,3.30
2023-01-17T20:23:47.106Z,3.20
2023-01-17T20:26:18.647Z,3.10
2023-01-17T20:28:53.512Z,3.20
2023-01-17T20:31:26.019Z,3.20
2023-01-17T20:33:59.649Z,3.20
2023-01-17T20:36:30.878Z,3.30
2023-01-17T20:39:01.372Z,3.20
2023-01-17T20:41:33.562Z,3.20
2023-01-17T20:44:05.820Z,3.20
2023-01-17T20:46:40.754Z,3.20
2023-01-17T20:49:16.965Z,3.20
2023-01-17T20:51:48.648Z,3.20
2023-01-17T20:54:21.211Z,3.10
2023-01-17T20:56:51.631Z,3.10
2023-01-17T20:59:23.317Z,3.10
2023-01-17T21:01:54.167Z,3.30
2023-01-17T21:04:29.195Z,3.10
2023-01-17T21:06:59.632Z,3.30
2023-01-17T21:09:30.069Z,3.20
2023-01-17T21:12:01.608Z,3.10
2023-01-17T21:14:32.265Z,3.10
2023-01-17T21:17:02.744Z,3.10
2023-01-17T21:19:36.718Z,3.10
2023-01-17T21:22:07.945Z,3.10
2023-01-17T21:24:38.380Z,3.10
2023-01-17T21:27:09.243Z,3.20
2023-01-17T21:29:39.641Z,3.20
2023-01-17T21:32:10.025Z,3.20
2023-01-17T21:34:43.043Z,3.10
2023-01-17T21:37:13.468Z,3.10
2023-01-17T21:39:43.843Z,3.10
2023-01-17T21:42:14.411Z,3.10
2023-01-17T21:44:45.543Z,3.20
2023-01-17T21:47:15.872Z,3.20
2023-01-17T21:49:48.876Z,3.00
2023-01-17T21:52:21.950Z,3.00
2023-01-17T21:55:04.636Z,3.20
2023-01-17T21:57:47.330Z,3.00
2023-01-17T22:00:18.690Z,3.10
2023-01-17T22:02:50.526Z,3.00
2023-01-17T22:05:23.535Z,3.10
2023-01-17T22:08:08.069Z,3.10
2023-01-17T22:10:44.788Z,3.10
2023-01-17T22:13:16.534Z,3.00
2023-01-17T22:15:47.495Z,3.00
2023-01-17T22:18:18.080Z,3.00
2023-01-17T22:20:51.089Z,3.10
2023-01-17T22:23:21.435Z,3.10
2023-01-17T22:25:51.997Z,3.00
2023-01-17T22:28:22.405Z,3.00
2023-01-17T22:30:52.764Z,3.00
2023-01-17T22:33:23.277Z,3.00
2023-01-17T22:36:02.863Z,3.00
2023-01-17T22:38:33.401Z,3.10
2023-01-17T22:41:11.121Z,3.00
2023-01-17T22:43:43.367Z,3.00
2023-01-17T22:46:18.223Z,3.00
2023-01-17T22:48:49.010Z,3.00
2023-01-17T22:51:23.734Z,3.00
2023-01-17T22:53:55.543Z,3.10
2023-01-17T22:56:28.844Z,3.10
2023-01-17T22:59:00.929Z,2.90
2023-01-17T23:01:32.991Z,3.00
2023-01-17T23:04:05.553Z,2.90
2023-01-17T23:06:39.793Z,3.00
2023-01-17T23:09:12.953Z,2.90
2023-01-17T23:11:46.469Z,3.00
2023-01-17T23:14:19.707Z,3.00
2023-01-17T23:17:05.329Z,3.00
2023-01-17T23:19:37.969Z,3.00
2023-01-17T23:22:19.468Z,2.90
2023-01-17T23:24:55.138Z,2.90
2023-01-17T23:27:39.372Z,2.90
2023-01-17T23:30:16.594Z,2.90
2023-01-17T23:32:48.946Z,3.00
2023-01-17T23:35:20.876Z,3.10
2023-01-17T23:38:06.160Z,3.00
2023-01-17T23:40:38.071Z,3.00
2023-01-17T23:43:21.083Z,2.90
2023-01-17T23:45:51.766Z,3.10
2023-01-17T23:48:23.799Z,3.10
2023-01-17T23:50:54.115Z,3.10
2023-01-17T23:53:28.032Z,3.00
2023-01-17T23:55:59.888Z,3.00
2023-01-17T23:58:30.795Z,3.10
